Time;durP1;ratioP1;P1;durP2;ratioP2;P2;SDS_P1;SDS_P2;PMS_P1;PMS_P2;Temp;Humidity;BMP_temperature;BMP_pressure;BME280_temperature;BME280_humidity;BME280_pressure;Samples;Min_cycle;Max_cycle;Signal;HPM_P1;HPM_P2
2022/04/15 00:01:32;;;;;;;7.50;3.63;;;;;;;;;;10428951;28;20099;-70
2022/04/15 00:06:33;;;;;;;5.90;3.35;;;;;;;;;;10444561;28;20037;-71
2022/04/15 00:11:33;;;;;;;6.40;3.50;;;;;;;;;;10428468;28;20028;-71
2022/04/15 00:16:33;;;;;;;6.63;3.85;;;;;;;;;;10442963;28;20035;-70
2022/04/15 00:21:33;;;;;;;5.73;3.97;;;;;;;;;;10443912;28;20139;-75
2022/04/15 00:26:34;;;;;;;6.32;3.75;;;;;;;;;;10427225;28;20021;-72
2022/04/15 00:31:34;;;;;;;6.90;3.83;;;;;;;;;;10445662;28;20021;-71
2022/04/15 00:36:34;;;;;;;9.88;4.20;;;;;;;;;;10427690;28;20481;-70
2022/04/15 00:41:35;;;;;;;8.83;3.73;;;;;;;;;;10445471;28;20351;-73
2022/04/15 00:46:35;;;;;;;8.02;4.45;;;;;;;;;;10445090;28;20032;-69
2022/04/15 00:51:36;;;;;;;8.65;5.22;;;;;;;;;;10426765;28;20025;-70
2022/04/15 00:56:37;;;;;;;12.18;4.85;;;;;;;;;;10444712;28;20453;-71
2022/04/15 01:01:39;;;;;;;11.50;5.50;;;;;;;;;;10426730;28;20044;-74
2022/04/15 01:06:39;;;;;;;11.05;5.97;;;;;;;;;;10444091;28;20539;-71
2022/04/15 01:11:40;;;;;;;11.07;6.28;;;;;;;;;;10426448;28;20100;-75
2022/04/15 01:16:40;;;;;;;13.65;5.70;;;;;;;;;;10425752;28;20564;-71
2022/04/15 01:21:41;;;;;;;11.40;5.78;;;;;;;;;;10425814;28;20021;-71
2022/04/15 01:26:41;;;;;;;18.27;7.03;;;;;;;;;;10443386;28;20082;-71
2022/04/15 01:31:42;;;;;;;9.67;6.40;;;;;;;;;;10425297;28;20020;-73
2022/04/15 01:36:42;;;;;;;11.07;5.97;;;;;;;;;;10425666;28;20668;-71
2022/04/15 01:41:43;;;;;;;12.98;7.22;;;;;;;;;;10424318;28;20025;-71
2022/04/15 01:46:44;;;;;;;11.23;5.88;;;;;;;;;;10423763;22;20053;-68
2022/04/15 01:51:44;;;;;;;15.70;5.80;;;;;;;;;;10400734;28;20022;-71
2022/04/15 01:56:45;;;;;;;11.98;6.13;;;;;;;;;;10401931;28;20025;-71
2022/04/15 02:01:45;;;;;;;10.50;4.93;;;;;;;;;;10400374;28;20057;-71
2022/04/15 02:06:45;;;;;;;11.52;5.35;;;;;;;;;;10400151;28;20547;-77
2022/04/15 02:11:46;;;;;;;7.90;4.60;;;;;;;;;;10401659;28;20079;-71
2022/04/15 02:16:47;;;;;;;7.97;4.97;;;;;;;;;;10401612;28;20551;-70
2022/04/15 02:21:47;;;;;;;5.68;3.88;;;;;;;;;;10399765;28;20264;-70
2022/04/15 02:26:48;;;;;;;6.35;4.43;;;;;;;;;;10402554;28;20416;-75
2022/04/15 02:31:48;;;;;;;6.53;4.22;;;;;;;;;;10440960;28;20111;-73
2022/04/15 02:36:48;;;;;;;13.02;4.57;;;;;;;;;;10440532;28;20021;-69
2022/04/15 02:41:51;;;;;;;8.55;4.80;;;;;;;;;;10441159;28;20028;-70
2022/04/15 02:46:53;;;;;;;7.15;4.68;;;;;;;;;;10440097;28;20503;-71
2022/04/15 02:51:54;;;;;;;9.13;6.38;;;;;;;;;;10443848;28;20017;-77
2022/04/15 02:56:55;;;;;;;9.77;5.50;;;;;;;;;;10448079;28;20420;-70
2022/04/15 03:01:55;;;;;;;8.23;5.32;;;;;;;;;;10448032;28;20409;-70
2022/04/15 03:06:55;;;;;;;8.55;4.85;;;;;;;;;;10447242;28;20412;-69
2022/04/15 03:11:56;;;;;;;7.87;4.63;;;;;;;;;;10447788;28;20036;-71
2022/04/15 03:16:56;;;;;;;9.48;5.40;;;;;;;;;;10447367;28;20044;-72
2022/04/15 03:21:56;;;;;;;8.40;4.88;;;;;;;;;;10446860;28;20523;-70
2022/04/15 03:26:57;;;;;;;9.40;5.00;;;;;;;;;;10446992;28;20024;-74
2022/04/15 03:31:57;;;;;;;7.60;5.13;;;;;;;;;;10448276;28;20032;-70
2022/04/15 03:36:57;;;;;;;13.82;5.97;;;;;;;;;;10446993;28;20040;-70
2022/04/15 03:41:58;;;;;;;13.38;5.28;;;;;;;;;;10446770;28;20172;-76
2022/04/15 03:46:58;;;;;;;8.10;5.22;;;;;;;;;;10446664;28;20053;-73
2022/04/15 03:51:59;;;;;;;7.37;5.03;;;;;;;;;;10447185;28;20021;-78
2022/04/15 03:56:59;;;;;;;19.23;7.05;;;;;;;;;;10446330;28;20029;-72
2022/04/15 04:01:59;;;;;;;11.38;5.07;;;;;;;;;;10447679;28;20036;-73
2022/04/15 04:07:00;;;;;;;12.32;5.88;;;;;;;;;;10446291;28;20033;-75
2022/04/15 04:12:00;;;;;;;9.63;6.10;;;;;;;;;;10445991;28;20025;-72
2022/04/15 04:17:00;;;;;;;7.75;4.88;;;;;;;;;;10445112;28;20439;-72
2022/04/15 04:22:00;;;;;;;9.05;5.05;;;;;;;;;;10446177;28;20095;-72
2022/04/15 04:27:01;;;;;;;11.60;4.10;;;;;;;;;;10445920;28;20035;-70
2022/04/15 04:32:01;;;;;;;9.50;4.32;;;;;;;;;;10445204;28;20028;-72
2022/04/15 04:37:01;;;;;;;7.88;5.32;;;;;;;;;;10444894;28;20112;-72
2022/04/15 04:42:02;;;;;;;10.30;4.73;;;;;;;;;;10432757;28;20476;-70
2022/04/15 04:47:03;;;;;;;10.25;5.30;;;;;;;;;;10415639;28;20136;-72
2022/04/15 04:52:04;;;;;;;8.57;4.25;;;;;;;;;;10441069;28;20024;-72
2022/04/15 04:57:05;;;;;;;7.72;4.22;;;;;;;;;;10419515;28;20029;-72
2022/04/15 05:02:05;;;;;;;9.10;4.30;;;;;;;;;;10402775;28;20083;-72
2022/04/15 05:07:06;;;;;;;11.90;5.30;;;;;;;;;;10404278;28;20052;-72
2022/04/15 05:12:06;;;;;;;7.47;5.00;;;;;;;;;;10423438;28;20025;-74
2022/04/15 05:17:07;;;;;;;11.25;4.70;;;;;;;;;;10443841;28;20047;-72
2022/04/15 05:22:07;;;;;;;10.25;4.18;;;;;;;;;;10443389;28;20029;-73
2022/04/15 05:27:08;;;;;;;8.13;3.72;;;;;;;;;;10417393;28;20029;-70
2022/04/15 05:32:08;;;;;;;6.87;4.07;;;;;;;;;;10400590;28;20029;-71
2022/04/15 05:37:09;;;;;;;7.83;3.77;;;;;;;;;;10401967;28;20099;-72
2022/04/15 05:42:09;;;;;;;5.65;3.47;;;;;;;;;;10401166;28;20078;-72
2022/04/15 05:47:10;;;;;;;11.65;3.88;;;;;;;;;;10417859;28;20148;-71
2022/04/15 05:52:10;;;;;;;7.00;4.20;;;;;;;;;;10401530;28;20469;-75
2022/04/15 05:57:10;;;;;;;9.27;4.28;;;;;;;;;;10401225;28;20040;-72
2022/04/15 06:02:10;;;;;;;6.50;4.10;;;;;;;;;;10405134;28;20026;-71
2022/04/15 06:07:12;;;;;;;7.95;3.47;;;;;;;;;;10402158;28;20036;-75
2022/04/15 06:12:12;;;;;;;9.70;4.55;;;;;;;;;;10401968;28;20109;-72
2022/04/15 06:17:13;;;;;;;9.55;3.80;;;;;;;;;;10441695;28;20376;-71
2022/04/15 06:22:13;;;;;;;9.77;3.72;;;;;;;;;;10441354;28;20512;-70
2022/04/15 06:27:13;;;;;;;11.55;4.10;;;;;;;;;;10446461;28;20552;-70
2022/04/15 06:32:14;;;;;;;8.93;4.40;;;;;;;;;;10450022;28;20087;-72
2022/04/15 06:37:14;;;;;;;9.30;4.07;;;;;;;;;;10449763;28;20029;-71
2022/04/15 06:42:14;;;;;;;10.10;4.00;;;;;;;;;;10449876;28;20161;-71
2022/04/15 06:47:15;;;;;;;11.35;4.47;;;;;;;;;;10449320;28;20488;-71
2022/04/15 06:52:16;;;;;;;5.68;3.60;;;;;;;;;;10448876;28;20036;-73
2022/04/15 06:57:17;;;;;;;8.50;3.42;;;;;;;;;;10450783;28;20112;-71
2022/04/15 07:02:17;;;;;;;7.55;3.72;;;;;;;;;;10448836;28;20074;-71
2022/04/15 07:07:17;;;;;;;6.07;3.53;;;;;;;;;;10448656;28;20029;-72
2022/04/15 07:12:18;;;;;;;8.23;3.87;;;;;;;;;;10448170;28;20161;-70
2022/04/15 07:17:18;;;;;;;12.77;3.90;;;;;;;;;;10449684;28;20077;-71
2022/04/15 07:22:19;;;;;;;10.33;3.73;;;;;;;;;;10448162;28;20463;-72
2022/04/15 07:27:19;;;;;;;4.30;2.95;;;;;;;;;;10447453;28;20083;-72
2022/04/15 07:32:21;;;;;;;8.20;3.20;;;;;;;;;;10448842;28;20813;-70
2022/04/15 07:37:22;;;;;;;11.57;3.33;;;;;;;;;;10448006;28;20028;-72
2022/04/15 07:42:22;;;;;;;14.30;4.00;;;;;;;;;;10430972;28;20033;-71
2022/04/15 07:47:23;;;;;;;9.13;4.27;;;;;;;;;;10480660;28;20044;-72
2022/04/15 07:52:23;;;;;;;21.67;8.57;;;;;;;;;;10491235;28;20267;-72
2022/04/15 07:57:27;;;;;;;21.83;5.10;;;;;;;;;;10490410;28;20087;-71
2022/04/15 08:02:28;;;;;;;17.08;6.75;;;;;;;;;;10473186;28;20108;-71
2022/04/15 08:07:28;;;;;;;11.43;5.20;;;;;;;;;;10489809;28;20021;-73
2022/04/15 08:12:28;;;;;;;9.90;4.72;;;;;;;;;;10470509;28;20025;-75
2022/04/15 08:17:29;;;;;;;14.85;5.15;;;;;;;;;;10471294;28;20033;-71
2022/04/15 08:22:34;;;;;;;10.68;4.70;;;;;;;;;;10471452;28;20531;-73
2022/04/15 08:27:34;;;;;;;17.10;5.72;;;;;;;;;;10470621;28;20021;-71
2022/04/15 08:32:34;;;;;;;20.13;5.50;;;;;;;;;;10488449;28;20035;-72
2022/04/15 08:37:35;;;;;;;17.53;3.90;;;;;;;;;;10470476;28;20038;-71
2022/04/15 08:42:35;;;;;;;8.97;3.87;;;;;;;;;;10487502;28;20123;-72
2022/04/15 08:47:36;;;;;;;12.68;3.22;;;;;;;;;;10486899;28;20500;-71
2022/04/15 08:52:36;;;;;;;5.05;2.78;;;;;;;;;;10468918;28;20021;-73
2022/04/15 08:57:37;;;;;;;11.25;3.13;;;;;;;;;;10486723;28;20411;-71
2022/04/15 09:02:37;;;;;;;10.93;3.13;;;;;;;;;;10487200;28;20120;-74
2022/04/15 09:07:38;;;;;;;4.32;2.50;;;;;;;;;;10467495;28;20070;-73
2022/04/15 09:12:39;;;;;;;8.63;2.90;;;;;;;;;;10468153;28;20028;-75
2022/04/15 09:17:41;;;;;;;4.38;2.53;;;;;;;;;;10468148;28;20077;-72
2022/04/15 09:22:42;;;;;;;12.70;2.42;;;;;;;;;;10468132;28;20029;-72
2022/04/15 09:27:42;;;;;;;4.30;3.25;;;;;;;;;;10468062;28;20024;-70
2022/04/15 09:32:43;;;;;;;11.52;3.00;;;;;;;;;;10468241;28;20029;-72
2022/04/15 09:37:43;;;;;;;11.98;3.35;;;;;;;;;;10467717;28;20184;-72
2022/04/15 09:42:50;;;;;;;11.10;3.93;;;;;;;;;;10467409;28;20029;-69
2022/04/15 09:47:51;;;;;;;8.55;3.60;;;;;;;;;;10442181;28;20299;-72
2022/04/15 09:52:52;;;;;;;10.27;2.53;;;;;;;;;;10443086;28;20021;-72
2022/04/15 09:57:52;;;;;;;8.73;3.10;;;;;;;;;;10442311;28;20036;-72
2022/04/15 10:02:53;;;;;;;4.97;2.23;;;;;;;;;;10443182;28;20033;-74
2022/04/15 10:07:54;;;;;;;5.32;2.30;;;;;;;;;;10443366;28;20032;-72
2022/04/15 10:12:55;;;;;;;8.80;2.30;;;;;;;;;;10443345;28;20021;-72
2022/04/15 10:17:56;;;;;;;3.73;2.43;;;;;;;;;;10442160;28;20028;-76
2022/04/15 10:22:59;;;;;;;13.55;2.33;;;;;;;;;;10442310;28;20152;-73
2022/04/15 10:28:13;;;;;;;5.97;2.25;;;;;;;;;;10441776;28;20556;-76
2022/04/15 10:33:26;;;;;;;5.47;2.30;;;;;;;;;;10425279;28;20040;-71
2022/04/15 10:38:27;;;;;;;3.67;2.10;;;;;;;;;;10425470;28;20091;-71
2022/04/15 10:43:27;;;;;;;6.03;2.40;;;;;;;;;;10424095;28;20123;-71
2022/04/15 10:48:28;;;;;;;3.58;1.70;;;;;;;;;;10441078;28;20068;-72
2022/04/15 10:53:30;;;;;;;3.15;1.98;;;;;;;;;;10440515;28;20111;-71
2022/04/15 10:58:31;;;;;;;6.63;2.47;;;;;;;;;;10441176;28;20029;-74
2022/04/15 11:03:32;;;;;;;3.43;2.00;;;;;;;;;;10440829;28;20582;-71
2022/04/15 11:08:46;;;;;;;6.90;2.83;;;;;;;;;;10440384;28;20040;-74
2022/04/15 11:13:46;;;;;;;5.78;2.47;;;;;;;;;;10445249;28;20112;-72
2022/04/15 11:18:47;;;;;;;5.43;2.15;;;;;;;;;;10447840;28;20121;-72
2022/04/15 11:23:51;;;;;;;13.40;2.60;;;;;;;;;;10450234;28;20025;-72
2022/04/15 11:28:53;;;;;;;4.03;2.50;;;;;;;;;;10449658;28;20036;-75
2022/04/15 11:33:54;;;;;;;7.82;2.80;;;;;;;;;;10448339;28;20051;-72
2022/04/15 11:38:58;;;;;;;4.68;2.50;;;;;;;;;;10447081;28;20056;-72
2022/04/15 11:44:00;;;;;;;5.68;2.65;;;;;;;;;;10449925;28;20052;-74
2022/04/15 11:49:01;;;;;;;6.60;3.28;;;;;;;;;;10471367;28;20028;-73
2022/04/15 11:54:01;;;;;;;12.05;3.45;;;;;;;;;;10470769;28;20024;-71
2022/04/15 11:59:01;;;;;;;5.15;2.85;;;;;;;;;;10470693;28;20031;-71
2022/04/15 12:04:02;;;;;;;11.27;3.13;;;;;;;;;;10489120;28;20093;-71
2022/04/15 12:09:02;;;;;;;9.00;3.45;;;;;;;;;;10470269;28;20488;-75
2022/04/15 12:14:03;;;;;;;15.82;4.57;;;;;;;;;;10470282;28;20487;-72
2022/04/15 12:19:04;;;;;;;9.60;3.80;;;;;;;;;;10470197;28;20031;-76
2022/04/15 12:24:11;;;;;;;7.35;3.95;;;;;;;;;;10470064;28;20013;-73
2022/04/15 12:34:31;;;;;;;7.65;3.83;;;;;;;;;;10487695;28;20029;-80
2022/04/15 12:39:31;;;;;;;7.70;3.60;;;;;;;;;;10487326;28;20484;-73
2022/04/15 12:44:32;;;;;;;7.22;2.85;;;;;;;;;;10452495;28;20053;-75
2022/04/15 12:49:34;;;;;;;4.85;2.15;;;;;;;;;;10468328;28;20049;-73
2022/04/15 12:54:54;;;;;;;5.75;3.13;;;;;;;;;;10456569;28;20503;-73
2022/04/15 12:59:54;;;;;;;9.45;4.25;;;;;;;;;;10452857;28;20021;-72
2022/04/15 13:04:54;;;;;;;3.77;2.10;;;;;;;;;;10452671;28;20104;-72
2022/04/15 13:09:55;;;;;;;4.63;2.75;;;;;;;;;;10449928;28;20514;-74
2022/04/15 13:14:55;;;;;;;6.82;2.28;;;;;;;;;;10455927;28;20105;-74
2022/04/15 13:19:55;;;;;;;5.83;2.40;;;;;;;;;;10450651;28;20044;-71
2022/04/15 13:24:56;;;;;;;4.28;2.50;;;;;;;;;;10451729;28;20086;-71
2022/04/15 13:29:58;;;;;;;5.47;2.60;;;;;;;;;;10446195;28;20028;-70
2022/04/15 13:34:58;;;;;;;5.32;2.88;;;;;;;;;;10455147;28;20033;-74
2022/04/15 13:39:58;;;;;;;14.60;3.38;;;;;;;;;;10466041;28;20095;-76
2022/04/15 13:44:59;;;;;;;4.60;2.83;;;;;;;;;;10456651;28;20041;-71
2022/04/15 13:50:00;;;;;;;5.73;2.30;;;;;;;;;;10455687;28;20042;-76
2022/04/15 14:00:20;;;;;;;7.53;2.55;;;;;;;;;;10463514;28;20119;-76
2022/04/15 14:05:20;;;;;;;8.40;2.53;;;;;;;;;;10454583;28;20033;-72
2022/04/15 14:10:20;;;;;;;6.50;2.30;;;;;;;;;;10453100;28;20469;-73
2022/04/15 14:15:23;;;;;;;6.72;3.28;;;;;;;;;;10453144;28;20577;-74
2022/04/15 14:20:24;;;;;;;6.10;2.22;;;;;;;;;;10446272;28;20081;-71
2022/04/15 14:25:25;;;;;;;4.72;2.35;;;;;;;;;;10453387;28;20029;-76
2022/04/15 14:30:25;;;;;;;6.47;3.13;;;;;;;;;;10452138;28;20260;-73
2022/04/15 14:35:25;;;;;;;5.67;3.17;;;;;;;;;;10465253;28;20115;-75
2022/04/15 14:40:25;;;;;;;3.47;2.40;;;;;;;;;;10452590;28;20127;-77
2022/04/15 14:45:26;;;;;;;6.75;3.17;;;;;;;;;;10435687;28;20445;-71
2022/04/15 14:50:27;;;;;;;7.28;2.70;;;;;;;;;;10432179;28;20055;-72
2022/04/15 14:55:27;;;;;;;7.85;2.53;;;;;;;;;;10466645;28;20020;-73
2022/04/15 15:00:29;;;;;;;4.68;2.70;;;;;;;;;;10457233;28;20066;-74
2022/04/15 15:05:30;;;;;;;8.98;3.00;;;;;;;;;;10472742;28;20119;-72
2022/04/15 15:10:30;;;;;;;8.75;3.33;;;;;;;;;;10448386;28;20019;-72
2022/04/15 15:15:30;;;;;;;6.00;2.70;;;;;;;;;;10414877;28;20029;-70
2022/04/15 15:20:31;;;;;;;6.68;2.60;;;;;;;;;;10430713;28;20025;-75
2022/04/15 15:30:50;;;;;;;3.70;2.58;;;;;;;;;;10454974;28;20032;-72
2022/04/15 15:35:52;;;;;;;8.60;3.72;;;;;;;;;;10455063;28;20036;-73
2022/04/15 15:40:52;;;;;;;5.07;2.92;;;;;;;;;;10471594;28;20059;-72
2022/04/15 15:45:53;;;;;;;6.60;2.50;;;;;;;;;;10470873;28;20152;-73
2022/04/15 15:50:53;;;;;;;14.77;2.65;;;;;;;;;;10489361;28;20470;-73
2022/04/15 15:55:53;;;;;;;9.30;3.13;;;;;;;;;;10471054;28;20051;-72
2022/04/15 16:00:54;;;;;;;8.32;3.10;;;;;;;;;;10470639;28;20408;-74
2022/04/15 16:05:54;;;;;;;9.80;4.93;;;;;;;;;;10445999;28;20075;-74
2022/04/15 16:10:54;;;;;;;8.45;3.05;;;;;;;;;;10487734;28;20025;-72
2022/04/15 16:15:55;;;;;;;9.10;2.75;;;;;;;;;;10470600;28;20032;-76
2022/04/15 16:20:55;;;;;;;8.52;2.92;;;;;;;;;;10452664;28;20552;-73
2022/04/15 16:25:56;;;;;;;5.50;3.05;;;;;;;;;;10428925;28;20035;-73
2022/04/15 16:30:59;;;;;;;14.50;3.38;;;;;;;;;;10447181;28;20273;-72
2022/04/15 16:35:59;;;;;;;6.68;3.80;;;;;;;;;;10449069;28;20029;-73
2022/04/15 16:41:00;;;;;;;14.73;4.90;;;;;;;;;;10469091;28;20020;-75
2022/04/15 16:46:00;;;;;;;9.82;5.22;;;;;;;;;;10486613;28;20051;-73
2022/04/15 16:51:01;;;;;;;10.33;4.53;;;;;;;;;;10444603;28;20032;-75
2022/04/15 17:01:21;;;;;;;17.35;5.88;;;;;;;;;;10485136;28;20131;-71
2022/04/15 17:06:22;;;;;;;11.60;5.20;;;;;;;;;;10468539;28;20028;-78
2022/04/15 17:11:22;;;;;;;17.48;6.13;;;;;;;;;;10444129;28;20035;-73
2022/04/15 17:16:22;;;;;;;14.93;5.88;;;;;;;;;;10426983;28;20057;-72
2022/04/15 17:21:23;;;;;;;22.20;5.57;;;;;;;;;;10427613;28;20063;-73
2022/04/15 17:26:23;;;;;;;9.87;4.23;;;;;;;;;;10445750;28;20029;-80
2022/04/15 17:31:23;;;;;;;18.65;4.40;;;;;;;;;;10426897;28;20027;-72
2022/04/15 17:36:23;;;;;;;27.48;8.63;;;;;;;;;;10473217;28;20485;-72
2022/04/15 17:41:24;;;;;;;10.23;4.22;;;;;;;;;;10467685;28;20017;-72
2022/04/15 17:46:24;;;;;;;8.67;4.53;;;;;;;;;;10435611;28;20114;-73
2022/04/15 17:51:24;;;;;;;9.80;3.60;;;;;;;;;;10444272;28;20029;-78
2022/04/15 17:56:25;;;;;;;11.67;4.50;;;;;;;;;;10426444;28;20104;-74
2022/04/15 18:01:26;;;;;;;8.38;4.78;;;;;;;;;;10426188;28;20172;-78
2022/04/15 18:06:26;;;;;;;9.43;3.97;;;;;;;;;;10443359;28;20127;-72
2022/04/15 18:11:26;;;;;;;7.10;3.85;;;;;;;;;;10435900;28;20530;-74
2022/04/15 18:16:28;;;;;;;11.75;4.00;;;;;;;;;;10466882;28;20033;-73
2022/04/15 18:21:28;;;;;;;7.97;3.97;;;;;;;;;;10451500;28;20074;-72
2022/04/15 18:26:28;;;;;;;11.60;3.70;;;;;;;;;;10457093;28;20550;-73
2022/04/15 18:31:30;;;;;;;6.68;3.75;;;;;;;;;;10434018;28;20021;-72
2022/04/15 18:36:31;;;;;;;10.50;5.60;;;;;;;;;;10446786;28;20415;-72
2022/04/15 18:41:33;;;;;;;8.75;3.63;;;;;;;;;;10450136;28;20021;-72
2022/04/15 18:46:33;;;;;;;6.22;3.90;;;;;;;;;;10473521;28;20584;-71
2022/04/15 18:56:53;;;;;;;16.25;5.68;;;;;;;;;;10490490;28;20250;-72
2022/04/15 19:01:55;;;;;;;7.28;4.68;;;;;;;;;;10471636;28;20112;-72
2022/04/15 19:06:55;;;;;;;12.80;4.88;;;;;;;;;;10489410;28;20028;-72
2022/04/15 19:11:55;;;;;;;17.10;5.03;;;;;;;;;;10471222;28;20029;-71
2022/04/15 19:16:56;;;;;;;18.40;7.03;;;;;;;;;;10472045;28;20024;-71
2022/04/15 19:21:57;;;;;;;17.97;6.47;;;;;;;;;;10471675;28;20049;-73
2022/04/15 19:26:57;;;;;;;12.25;5.10;;;;;;;;;;10489974;28;20036;-76
2022/04/15 19:31:58;;;;;;;11.48;4.50;;;;;;;;;;10471650;28;20028;-74
2022/04/15 19:36:58;;;;;;;12.15;5.40;;;;;;;;;;10471019;28;20040;-73
2022/04/15 19:41:59;;;;;;;12.63;4.50;;;;;;;;;;10469091;28;20028;-71
2022/04/15 19:46:59;;;;;;;9.18;5.45;;;;;;;;;;10470697;28;20397;-75
2022/04/15 19:51:59;;;;;;;6.37;3.97;;;;;;;;;;10488934;28;20037;-72
2022/04/15 20:02:18;;;;;;;8.45;4.32;;;;;;;;;;10488558;28;20029;-73
2022/04/15 20:07:19;;;;;;;10.98;5.20;;;;;;;;;;10469996;28;20025;-73
2022/04/15 20:12:20;;;;;;;7.77;4.30;;;;;;;;;;10469757;28;20024;-77
2022/04/15 20:17:21;;;;;;;12.32;4.53;;;;;;;;;;10467484;28;20525;-72
2022/04/15 20:22:26;;;;;;;7.53;3.40;;;;;;;;;;10470209;28;20103;-73
2022/04/15 20:27:29;;;;;;;16.02;4.47;;;;;;;;;;10469224;28;20479;-74
2022/04/15 20:32:30;;;;;;;13.10;4.75;;;;;;;;;;10468972;28;20013;-74
2022/04/15 20:37:30;;;;;;;10.98;5.13;;;;;;;;;;10469230;28;20059;-72
2022/04/15 20:42:31;;;;;;;21.97;5.80;;;;;;;;;;10468731;28;20031;-71
2022/04/15 20:47:31;;;;;;;9.70;4.45;;;;;;;;;;10467863;28;20045;-73
2022/04/15 20:52:32;;;;;;;10.47;4.77;;;;;;;;;;10468822;28;20070;-72
2022/04/15 20:57:33;;;;;;;6.60;4.40;;;;;;;;;;10485905;28;20028;-72
2022/04/15 21:02:33;;;;;;;18.83;5.07;;;;;;;;;;10455279;28;20488;-72
2022/04/15 21:07:34;;;;;;;14.07;6.03;;;;;;;;;;10441728;28;20025;-72
2022/04/15 21:12:35;;;;;;;9.50;5.05;;;;;;;;;;10426516;28;20025;-72
2022/04/15 21:17:35;;;;;;;13.48;7.88;;;;;;;;;;10427727;28;20029;-72
2022/04/15 21:22:36;;;;;;;19.40;7.18;;;;;;;;;;10427938;28;20024;-71
2022/04/15 21:27:36;;;;;;;23.17;8.23;;;;;;;;;;10445049;28;20032;-71
2022/04/15 21:32:36;;;;;;;27.97;7.63;;;;;;;;;;10426992;28;20119;-72
2022/04/15 21:37:37;;;;;;;17.10;8.68;;;;;;;;;;10426857;28;20029;-71
2022/04/15 21:42:37;;;;;;;24.73;7.20;;;;;;;;;;10442306;28;20032;-71
2022/04/15 21:47:37;;;;;;;12.68;6.38;;;;;;;;;;10442563;28;20055;-76
2022/04/15 21:52:38;;;;;;;19.83;7.25;;;;;;;;;;10410643;28;20036;-73
2022/04/15 21:57:38;;;;;;;18.75;7.57;;;;;;;;;;10425640;28;20124;-73
2022/04/15 22:02:39;;;;;;;15.80;8.13;;;;;;;;;;10443851;28;20117;-72
2022/04/15 22:07:40;;;;;;;13.60;6.60;;;;;;;;;;10442799;28;20495;-72
2022/04/15 22:12:40;;;;;;;20.90;8.40;;;;;;;;;;10442870;28;20021;-70
2022/04/15 22:17:41;;;;;;;11.00;4.88;;;;;;;;;;10442172;28;20033;-71
2022/04/15 22:22:41;;;;;;;10.43;4.55;;;;;;;;;;10444434;28;20033;-71
2022/04/15 22:27:41;;;;;;;9.83;4.60;;;;;;;;;;10425461;28;20021;-75
2022/04/15 22:32:41;;;;;;;8.23;4.30;;;;;;;;;;10443586;28;20112;-69
2022/04/15 22:37:45;;;;;;;6.20;3.72;;;;;;;;;;10466659;28;20024;-71
2022/04/15 22:42:45;;;;;;;16.23;4.57;;;;;;;;;;10484524;28;20461;-73
2022/04/15 22:47:48;;;;;;;9.20;4.07;;;;;;;;;;10484508;28;20105;-71
2022/04/15 22:52:49;;;;;;;13.20;4.32;;;;;;;;;;10466963;28;20056;-74
2022/04/15 22:57:49;;;;;;;5.43;4.10;;;;;;;;;;10466624;28;20115;-69
2022/04/15 23:02:50;;;;;;;11.35;3.70;;;;;;;;;;10466244;28;20027;-73
2022/04/15 23:07:54;;;;;;;9.20;4.25;;;;;;;;;;10468095;28;20112;-69
2022/04/15 23:12:55;;;;;;;14.48;6.35;;;;;;;;;;10491605;28;20025;-75
2022/04/15 23:17:57;;;;;;;9.90;6.10;;;;;;;;;;10473222;28;20484;-74
2022/04/15 23:23:01;;;;;;;14.70;4.90;;;;;;;;;;10473188;28;20044;-73
2022/04/15 23:28:01;;;;;;;15.68;6.07;;;;;;;;;;10491452;28;20111;-72
2022/04/15 23:33:01;;;;;;;10.90;5.87;;;;;;;;;;10472603;28;20593;-74
2022/04/15 23:38:02;;;;;;;10.02;6.05;;;;;;;;;;10473092;28;20031;-74
2022/04/15 23:43:02;;;;;;;19.00;7.55;;;;;;;;;;10472430;28;20807;-75
2022/04/15 23:53:22;;;;;;;9.73;6.00;;;;;;;;;;10490268;28;20029;-70
2022/04/15 23:58:22;;;;;;;10.98;6.22;;;;;;;;;;10472201;28;20032;-72
